createdAt,value
2019-05-02T00:03:04.539Z,15.60
2019-05-02T00:06:15.951Z,15.77
2019-05-02T00:09:30.174Z,17.27
2019-05-02T00:12:44.278Z,18.37
2019-05-02T00:15:58.630Z,20.57
2019-05-02T00:19:13.897Z,16.47
2019-05-02T00:22:28.358Z,17.40
2019-05-02T00:25:41.947Z,19.83
2019-05-02T00:28:55.949Z,22.07
2019-05-02T00:32:09.662Z,21.90
2019-05-02T00:35:23.242Z,23.93
2019-05-02T00:38:38.482Z,18.97
2019-05-02T00:41:52.553Z,22.67
2019-05-02T00:45:06.464Z,22.93
2019-05-02T00:48:42.706Z,22.17
2019-05-02T00:52:00.896Z,27.53
2019-05-02T00:55:12.611Z,24.97
2019-05-02T00:58:27.236Z,24.30
2019-05-02T01:01:52.334Z,23.57
2019-05-02T01:05:06.235Z,23.27
2019-05-02T01:08:19.750Z,23.67
2019-05-02T01:11:33.369Z,23.43
2019-05-02T01:14:46.883Z,26.10
2019-05-02T01:18:01.080Z,28.70
2019-05-02T01:24:45.750Z,28.20
2019-05-02T01:28:17.966Z,27.90
2019-05-02T01:31:38.707Z,26.27
2019-05-02T01:35:00.541Z,29.90
2019-05-02T01:38:33.681Z,29.47
2019-05-02T01:41:47.703Z,25.33
2019-05-02T01:45:01.286Z,30.53
2019-05-02T01:48:14.897Z,33.37
2019-05-02T01:51:28.476Z,32.97
2019-05-02T01:54:45.856Z,29.90
2019-05-02T01:57:57.401Z,34.40
2019-05-02T02:01:10.918Z,28.40
2019-05-02T02:04:24.396Z,33.10
2019-05-02T02:07:37.906Z,30.90
2019-05-02T02:10:56.239Z,34.07
2019-05-02T02:14:12.182Z,32.43
2019-05-02T02:17:23.010Z,37.60
2019-05-02T02:20:49.060Z,36.83
2019-05-02T02:24:07.821Z,32.97
2019-05-02T02:27:24.601Z,37.47
2019-05-02T02:30:36.936Z,39.23
2019-05-02T02:33:50.815Z,36.77
2019-05-02T02:37:12.164Z,34.63
2019-05-02T02:40:20.089Z,37.23
2019-05-02T02:43:35.009Z,43.03
2019-05-02T02:46:48.909Z,35.70
2019-05-02T02:50:05.358Z,42.30
2019-05-02T02:53:28.998Z,36.30
2019-05-02T02:56:42.858Z,38.20
2019-05-02T03:00:06.752Z,44.47
2019-05-02T03:03:12.230Z,40.70
2019-05-02T03:06:25.938Z,38.60
2019-05-02T03:09:39.554Z,38.33
2019-05-02T03:13:15.068Z,45.47
2019-05-02T03:16:28.417Z,40.57
2019-05-02T03:19:42.026Z,37.93
2019-05-02T03:22:55.717Z,47.33
2019-05-02T03:26:15.006Z,42.17
2019-05-02T03:29:24.955Z,46.83
2019-05-02T03:32:38.564Z,42.33
2019-05-02T03:35:52.169Z,40.10
2019-05-02T03:39:13.492Z,43.93
2019-05-02T03:42:22.188Z,46.67
2019-05-02T03:45:40.071Z,44.77
2019-05-02T03:48:52.049Z,42.57
2019-05-02T03:52:06.208Z,41.33
2019-05-02T03:55:23.742Z,46.97
2019-05-02T03:58:35.731Z,44.73
2019-05-02T04:01:49.666Z,47.27
2019-05-02T04:05:03.890Z,48.00
2019-05-02T04:08:20.778Z,53.83
2019-05-02T04:11:38.976Z,51.27
2019-05-02T04:14:55.303Z,45.50
2019-05-02T04:18:08.367Z,57.00
2019-05-02T04:21:24.520Z,51.97
2019-05-02T04:24:36.602Z,50.03
2019-05-02T04:27:50.196Z,48.93
2019-05-02T04:31:03.796Z,43.47
2019-05-02T04:34:17.905Z,49.20
2019-05-02T04:37:34.384Z,49.87
2019-05-02T04:40:49.581Z,52.80
2019-05-02T04:44:02.998Z,51.27
2019-05-02T04:47:20.876Z,50.97
2019-05-02T04:50:32.597Z,46.60
2019-05-02T04:53:49.558Z,53.33
2019-05-02T04:57:02.710Z,61.93
2019-05-02T05:00:21.061Z,55.20
2019-05-02T05:03:34.822Z,57.20
2019-05-02T05:06:56.210Z,64.27
2019-05-02T05:10:04.246Z,66.63
2019-05-02T05:16:34.393Z,57.43
2019-05-02T05:19:48.742Z,53.77
2019-05-02T05:23:02.464Z,63.90
2019-05-02T05:26:17.520Z,58.07
2019-05-02T05:29:31.331Z,63.60
2019-05-02T05:32:45.123Z,58.73
2019-05-02T05:35:58.630Z,55.53
2019-05-02T05:39:12.138Z,61.17
2019-05-02T05:42:30.109Z,64.13
2019-05-02T05:45:53.486Z,66.87
2019-05-02T05:49:18.404Z,66.87
2019-05-02T05:52:28.450Z,68.80
2019-05-02T05:55:41.974Z,65.73
2019-05-02T05:58:58.967Z,65.07
2019-05-02T06:02:14.574Z,68.20
2019-05-02T06:05:27.647Z,63.00
2019-05-02T06:08:41.693Z,58.70
2019-05-02T06:11:55.635Z,61.50
2019-05-02T06:15:10.728Z,68.10
2019-05-02T06:18:24.319Z,63.70
2019-05-02T06:21:40.071Z,58.90
2019-05-02T06:24:53.300Z,63.40
2019-05-02T06:28:07.024Z,60.57
2019-05-02T06:31:20.480Z,64.73
2019-05-02T06:34:38.747Z,67.63
2019-05-02T06:37:50.335Z,74.00
2019-05-02T06:41:05.137Z,67.83
2019-05-02T06:44:23.717Z,73.23
2019-05-02T06:47:35.934Z,67.60
2019-05-02T06:50:50.024Z,73.37
2019-05-02T06:54:04.056Z,80.33
2019-05-02T06:57:19.098Z,82.03
2019-05-02T07:00:38.439Z,80.00
2019-05-02T07:03:48.779Z,93.17
2019-05-02T07:07:02.857Z,88.03
2019-05-02T07:10:20.140Z,87.30
2019-05-02T07:13:36.190Z,83.37
2019-05-02T07:17:05.674Z,84.30
2019-05-02T07:20:19.288Z,84.30
2019-05-02T07:23:32.806Z,87.67
2019-05-02T07:26:47.005Z,83.30
2019-05-02T07:30:00.954Z,86.37
2019-05-02T07:33:14.449Z,80.47
2019-05-02T07:36:31.188Z,80.37
2019-05-02T07:39:43.954Z,78.10
2019-05-02T07:42:57.538Z,77.53
2019-05-02T07:46:11.237Z,78.07
2019-05-02T07:49:26.538Z,73.70
2019-05-02T07:52:41.228Z,75.00
2019-05-02T07:55:54.937Z,81.17
2019-05-02T07:59:09.295Z,78.87
2019-05-02T08:02:25.035Z,78.43
2019-05-02T08:05:38.189Z,79.00
2019-05-02T08:08:51.769Z,81.07
2019-05-02T08:12:05.461Z,74.17
2019-05-02T08:15:19.149Z,79.33
2019-05-02T08:18:32.733Z,70.37
2019-05-02T08:21:46.230Z,74.83
2019-05-02T08:25:00.041Z,72.10
2019-05-02T08:28:21.626Z,72.47
2019-05-02T08:31:35.118Z,70.33
2019-05-02T08:34:51.653Z,69.87
2019-05-02T08:38:04.582Z,67.33
2019-05-02T08:41:19.924Z,66.13
2019-05-02T08:44:34.076Z,56.30
2019-05-02T08:47:47.586Z,48.90
2019-05-02T08:51:01.194Z,50.70
2019-05-02T08:54:15.052Z,44.60
2019-05-02T08:57:30.080Z,59.87
2019-05-02T09:00:47.002Z,60.57
2019-05-02T09:03:59.899Z,60.70
2019-05-02T09:07:13.452Z,58.47
2019-05-02T09:10:27.148Z,57.90
2019-05-02T09:13:42.166Z,55.77
2019-05-02T09:17:00.296Z,50.87
2019-05-02T09:20:18.744Z,53.20
2019-05-02T09:23:27.665Z,48.50
2019-05-02T09:26:43.717Z,47.10
2019-05-02T09:29:57.245Z,45.97
2019-05-02T09:33:11.755Z,46.87
2019-05-02T09:36:25.405Z,49.13
2019-05-02T09:39:38.999Z,47.57
2019-05-02T09:42:57.479Z,49.73
2019-05-02T09:46:12.798Z,48.37
2019-05-02T09:49:23.850Z,45.23
2019-05-02T09:52:39.542Z,48.27
2019-05-02T09:55:57.307Z,50.53
2019-05-02T09:59:24.308Z,52.43
2019-05-02T10:02:25.313Z,49.53
2019-05-02T10:05:39.031Z,48.37
2019-05-02T10:08:53.067Z,51.23
2019-05-02T10:12:07.094Z,51.33
2019-05-02T10:15:22.211Z,53.00
2019-05-02T10:18:35.883Z,50.50
2019-05-02T10:21:52.458Z,53.17
2019-05-02T10:25:06.133Z,52.90
2019-05-02T10:28:19.892Z,52.43
2019-05-02T10:31:37.669Z,54.03
2019-05-02T10:34:53.133Z,47.67
2019-05-02T10:38:04.373Z,47.93
2019-05-02T10:41:17.979Z,51.60
2019-05-02T10:44:32.703Z,49.23
2019-05-02T10:47:46.894Z,45.70
2019-05-02T10:51:18.718Z,45.90
2019-05-02T10:54:33.711Z,43.87
2019-05-02T10:57:48.884Z,42.40
2019-05-02T11:01:03.847Z,45.43
2019-05-02T11:04:17.532Z,47.73
2019-05-02T11:07:32.649Z,43.27
2019-05-02T11:10:46.822Z,43.40
2019-05-02T11:14:13.633Z,40.93
2019-05-02T11:17:32.445Z,45.77
2019-05-02T11:20:46.138Z,41.17
2019-05-02T11:24:02.185Z,40.13
2019-05-02T11:27:15.293Z,35.03
2019-05-02T11:30:29.031Z,38.23
2019-05-02T11:33:42.680Z,35.27
2019-05-02T11:36:56.494Z,34.93
2019-05-02T11:40:12.581Z,33.47
2019-05-02T11:43:26.046Z,31.77
2019-05-02T11:46:42.906Z,30.43
2019-05-02T11:49:56.002Z,32.90
2019-05-02T11:53:23.293Z,31.00
2019-05-02T11:56:25.250Z,32.40
2019-05-02T11:59:38.776Z,29.03
2019-05-02T12:03:14.776Z,29.60
2019-05-02T12:06:29.239Z,29.17
2019-05-02T12:09:44.328Z,27.97
2019-05-02T12:16:34.645Z,24.50
2019-05-02T12:19:48.386Z,24.17
2019-05-02T12:23:02.188Z,24.77
2019-05-02T12:26:15.778Z,21.83
2019-05-02T12:29:29.567Z,23.53
2019-05-02T12:32:43.383Z,26.03
2019-05-02T12:35:57.670Z,23.30
2019-05-02T12:39:12.645Z,25.40
2019-05-02T12:42:27.025Z,25.87
2019-05-02T12:45:42.119Z,24.57
2019-05-02T12:48:56.060Z,28.30
2019-05-02T12:52:09.604Z,23.97
2019-05-02T12:55:23.253Z,24.80
2019-05-02T12:58:37.047Z,25.97
2019-05-02T13:01:51.806Z,23.47
2019-05-02T13:05:05.748Z,28.40
2019-05-02T13:08:19.312Z,24.87
2019-05-02T13:11:42.152Z,25.63
2019-05-02T13:14:54.047Z,25.20
2019-05-02T13:18:07.784Z,25.47
2019-05-02T13:21:38.704Z,22.93
2019-05-02T13:24:54.140Z,23.07
2019-05-02T13:28:03.643Z,21.40
2019-05-02T13:31:42.811Z,22.30
2019-05-02T13:35:03.195Z,24.37
2019-05-02T13:38:19.581Z,23.13
2019-05-02T13:41:33.118Z,25.13
2019-05-02T13:44:54.073Z,24.67
2019-05-02T13:48:07.782Z,24.17
2019-05-02T13:51:22.279Z,29.40
2019-05-02T13:54:36.812Z,24.57
2019-05-02T13:57:50.425Z,28.77
2019-05-02T14:01:04.404Z,25.30
2019-05-02T14:04:18.130Z,25.97
2019-05-02T14:07:32.665Z,23.73
2019-05-02T14:10:47.903Z,27.13
2019-05-02T14:14:01.948Z,25.20
2019-05-02T14:17:15.857Z,25.50
2019-05-02T14:20:29.602Z,24.40
2019-05-02T14:23:43.337Z,23.63
2019-05-02T14:26:56.983Z,27.17
2019-05-02T14:30:12.206Z,22.97
2019-05-02T14:33:27.717Z,26.00
2019-05-02T14:36:42.347Z,22.63
2019-05-02T14:40:04.243Z,23.13
2019-05-02T14:43:43.006Z,21.80
2019-05-02T14:46:52.363Z,21.30
2019-05-02T14:50:06.407Z,21.53
2019-05-02T14:53:22.152Z,21.37
2019-05-02T14:56:55.515Z,20.67
2019-05-02T15:00:09.557Z,18.20
2019-05-02T15:03:24.575Z,19.93
2019-05-02T15:06:45.469Z,19.13
2019-05-02T15:09:57.134Z,15.43
2019-05-02T15:13:09.933Z,19.67
2019-05-02T15:16:33.392Z,14.13
2019-05-02T15:19:39.360Z,15.83
2019-05-02T15:22:52.873Z,15.37
2019-05-02T15:26:06.613Z,15.20
2019-05-02T15:29:25.088Z,16.53
2019-05-02T15:33:02.948Z,14.80
2019-05-02T15:36:17.057Z,15.23
2019-05-02T15:42:47.086Z,13.50
2019-05-02T15:46:02.011Z,12.80
2019-05-02T15:49:15.637Z,15.60
2019-05-02T15:52:32.621Z,14.53
2019-05-02T15:55:46.336Z,12.10
2019-05-02T15:59:03.417Z,13.60
2019-05-02T16:02:22.823Z,12.50
2019-05-02T16:05:36.553Z,11.60
2019-05-02T16:08:49.359Z,14.13
2019-05-02T16:12:03.546Z,13.13
2019-05-02T16:15:21.467Z,12.27
2019-05-02T16:18:36.019Z,11.97
2019-05-02T16:22:06.268Z,15.03
2019-05-02T16:25:20.036Z,13.77
2019-05-02T16:28:36.950Z,13.77
2019-05-02T16:32:09.924Z,13.97
2019-05-02T16:35:24.568Z,14.23
2019-05-02T16:38:38.062Z,15.77
2019-05-02T16:41:52.958Z,15.40
2019-05-02T16:45:08.198Z,15.90
2019-05-02T16:48:22.209Z,16.77
2019-05-02T16:51:37.631Z,16.37
2019-05-02T16:54:52.647Z,16.80
2019-05-02T16:58:07.373Z,14.17
2019-05-02T17:01:27.189Z,19.03
2019-05-02T17:04:36.899Z,14.07
2019-05-02T17:08:10.778Z,26.20
2019-05-02T17:11:33.648Z,24.60
2019-05-02T17:15:03.611Z,23.40
2019-05-02T17:18:18.242Z,25.27
2019-05-02T17:21:52.447Z,19.90
2019-05-02T17:24:48.220Z,20.93
2019-05-02T17:28:08.278Z,22.53
2019-05-02T17:31:20.424Z,34.33
2019-05-02T17:34:34.995Z,26.43
2019-05-02T17:37:49.104Z,21.97
2019-05-02T17:41:07.703Z,32.00
2019-05-02T17:44:22.109Z,25.60
2019-05-02T17:47:36.208Z,22.73
2019-05-02T17:51:09.371Z,20.63
2019-05-02T17:54:26.256Z,22.47
2019-05-02T17:57:38.506Z,19.63
2019-05-02T18:00:56.916Z,23.47
2019-05-02T18:04:12.660Z,21.87
2019-05-02T18:07:31.897Z,22.53
2019-05-02T18:10:41.886Z,27.77
2019-05-02T18:13:55.546Z,24.83
2019-05-02T18:17:09.246Z,25.87
2019-05-02T18:20:25.281Z,27.33
2019-05-02T18:23:38.464Z,25.63
2019-05-02T18:26:52.063Z,26.20
2019-05-02T18:30:06.791Z,26.13
2019-05-02T18:33:22.541Z,26.93
2019-05-02T18:36:36.336Z,27.73
2019-05-02T18:39:55.261Z,30.03
2019-05-02T18:43:05.836Z,31.33
2019-05-02T18:46:20.014Z,33.63
2019-05-02T18:49:33.834Z,32.63
2019-05-02T18:52:48.098Z,35.50
2019-05-02T18:56:03.641Z,35.43
2019-05-02T18:59:19.746Z,34.13
2019-05-02T19:02:35.683Z,38.30
2019-05-02T19:05:51.509Z,35.00
2019-05-02T19:09:09.058Z,34.97
2019-05-02T19:12:25.996Z,37.93
2019-05-02T19:15:39.516Z,33.27
2019-05-02T19:18:57.278Z,34.47
2019-05-02T19:22:13.361Z,34.57
2019-05-02T19:25:25.095Z,31.47
2019-05-02T19:29:02.502Z,29.60
2019-05-02T19:32:17.057Z,30.77
2019-05-02T19:35:32.794Z,31.40
2019-05-02T19:38:46.994Z,29.97
2019-05-02T19:42:01.787Z,32.97
2019-05-02T19:45:16.896Z,29.10
2019-05-02T19:48:33.025Z,31.87
2019-05-02T19:51:50.552Z,29.47
2019-05-02T19:55:01.951Z,27.43
2019-05-02T19:58:15.642Z,29.90
2019-05-02T20:01:29.660Z,32.87
2019-05-02T20:04:44.330Z,27.77
2019-05-02T20:07:58.047Z,31.23
2019-05-02T20:11:12.615Z,28.20
2019-05-02T20:14:26.278Z,28.07
2019-05-02T20:17:41.665Z,29.27
2019-05-02T20:21:23.492Z,25.93
2019-05-02T20:24:55.265Z,27.17
2019-05-02T20:28:06.944Z,21.27
2019-05-02T20:31:21.696Z,19.30
2019-05-02T20:34:35.667Z,17.33
2019-05-02T20:37:49.161Z,15.93
2019-05-02T20:41:03.094Z,17.07
2019-05-02T20:44:16.774Z,10.40
2019-05-02T20:47:30.457Z,10.13
2019-05-02T20:50:44.051Z,9.03
2019-05-02T20:53:57.641Z,10.27
2019-05-02T20:57:12.020Z,9.53
2019-05-02T21:00:27.849Z,11.77
2019-05-02T21:03:42.714Z,9.47
2019-05-02T21:07:10.602Z,8.20
2019-05-02T21:10:27.830Z,7.80
2019-05-02T21:16:34.044Z,14.20
2019-05-02T21:19:47.566Z,8.97
2019-05-02T21:23:01.990Z,6.97
2019-05-02T21:26:15.650Z,6.40
2019-05-02T21:29:29.271Z,5.53
2019-05-02T21:32:42.953Z,4.17
2019-05-02T21:35:56.530Z,4.47
2019-05-02T21:39:11.878Z,3.73
2019-05-02T21:42:25.713Z,3.80
2019-05-02T21:45:39.450Z,4.53
2019-05-02T21:48:52.925Z,3.90
2019-05-02T21:52:29.188Z,3.97
2019-05-02T21:55:52.071Z,3.90
2019-05-02T21:59:12.232Z,3.93
2019-05-02T22:02:26.336Z,3.50
2019-05-02T22:05:42.279Z,6.60
2019-05-02T22:08:55.832Z,4.27
2019-05-02T22:12:09.544Z,5.03
2019-05-02T22:15:23.051Z,3.37
2019-05-02T22:18:36.546Z,3.50
2019-05-02T22:21:52.265Z,3.50
2019-05-02T22:25:05.958Z,3.63
2019-05-02T22:28:19.556Z,3.37
2019-05-02T22:31:33.278Z,3.87
2019-05-02T22:34:46.757Z,4.73
2019-05-02T22:38:07.814Z,3.37
2019-05-02T22:41:22.138Z,3.20
2019-05-02T22:44:35.792Z,3.47
2019-05-02T22:47:49.274Z,3.67
2019-05-02T22:51:03.214Z,3.57
2019-05-02T22:54:26.675Z,3.40
2019-05-02T22:57:32.586Z,4.10
2019-05-02T23:00:46.276Z,4.30
2019-05-02T23:04:01.950Z,4.27
2019-05-02T23:07:15.780Z,5.13
2019-05-02T23:10:29.463Z,4.47
2019-05-02T23:13:43.049Z,4.13
2019-05-02T23:16:56.746Z,6.73
2019-05-02T23:20:12.674Z,5.20
2019-05-02T23:23:26.142Z,5.37
2019-05-02T23:27:05.380Z,5.30
2019-05-02T23:30:22.561Z,5.07
2019-05-02T23:33:54.512Z,6.70
2019-05-02T23:37:08.204Z,5.17
2019-05-02T23:40:22.166Z,5.10
2019-05-02T23:43:35.985Z,5.87
2019-05-02T23:46:51.505Z,4.77
2019-05-02T23:50:05.366Z,5.40
2019-05-02T23:53:19.192Z,6.47
2019-05-02T23:56:32.689Z,5.50
2019-05-02T23:59:46.152Z,5.10
